sensor_id;sensor_type;location;lat;lon;timestamp;temperature;humidity
19007;DHT22;9636;47.382;8.480;2023-07-29T00:01:43;22.70;98.10
19007;DHT22;9636;47.382;8.480;2023-07-29T00:04:09;22.70;98.10
19007;DHT22;9636;47.382;8.480;2023-07-29T00:06:36;22.70;98.10
19007;DHT22;9636;47.382;8.480;2023-07-29T00:09:03;22.70;98.10
19007;DHT22;9636;47.382;8.480;2023-07-29T00:11:31;22.60;98.10
19007;DHT22;9636;47.382;8.480;2023-07-29T00:13:59;22.60;98.50
19007;DHT22;9636;47.382;8.480;2023-07-29T00:16:26;22.70;98.10
19007;DHT22;9636;47.382;8.480;2023-07-29T00:18:53;22.70;98.20
19007;DHT22;9636;47.382;8.480;2023-07-29T00:21:20;22.60;98.10
19007;DHT22;9636;47.382;8.480;2023-07-29T00:23:46;22.60;98.10
19007;DHT22;9636;47.382;8.480;2023-07-29T00:26:13;22.60;98.10
19007;DHT22;9636;47.382;8.480;2023-07-29T00:28:41;22.60;98.20
19007;DHT22;9636;47.382;8.480;2023-07-29T00:31:08;22.50;98.10
19007;DHT22;9636;47.382;8.480;2023-07-29T00:33:36;22.60;98.20
19007;DHT22;9636;47.382;8.480;2023-07-29T00:36:03;22.50;98.20
19007;DHT22;9636;47.382;8.480;2023-07-29T00:38:30;22.50;98.20
19007;DHT22;9636;47.382;8.480;2023-07-29T00:40:57;22.50;98.20
19007;DHT22;9636;47.382;8.480;2023-07-29T00:43:24;22.50;98.20
19007;DHT22;9636;47.382;8.480;2023-07-29T00:45:53;22.40;98.20
19007;DHT22;9636;47.382;8.480;2023-07-29T00:48:20;22.40;98.30
19007;DHT22;9636;47.382;8.480;2023-07-29T00:50:47;22.40;98.30
19007;DHT22;9636;47.382;8.480;2023-07-29T00:53:14;22.40;98.30
19007;DHT22;9636;47.382;8.480;2023-07-29T00:55:41;22.40;98.30
19007;DHT22;9636;47.382;8.480;2023-07-29T00:58:07;22.40;98.30
19007;DHT22;9636;47.382;8.480;2023-07-29T01:00:34;22.40;98.30
19007;DHT22;9636;47.382;8.480;2023-07-29T01:03:03;22.40;98.70
19007;DHT22;9636;47.382;8.480;2023-07-29T01:05:36;22.30;98.30
19007;DHT22;9636;47.382;8.480;2023-07-29T01:08:09;22.30;98.30
19007;DHT22;9636;47.382;8.480;2023-07-29T01:10:49;22.30;98.30
19007;DHT22;9636;47.382;8.480;2023-07-29T01:13:23;22.30;98.30
19007;DHT22;9636;47.382;8.480;2023-07-29T01:15:57;22.30;98.30
19007;DHT22;9636;47.382;8.480;2023-07-29T01:18:29;22.30;98.30
19007;DHT22;9636;47.382;8.480;2023-07-29T01:21:04;22.20;98.30
19007;DHT22;9636;47.382;8.480;2023-07-29T01:23:33;22.30;98.30
19007;DHT22;9636;47.382;8.480;2023-07-29T01:26:01;22.30;98.30
19007;DHT22;9636;47.382;8.480;2023-07-29T01:28:28;22.20;98.30
19007;DHT22;9636;47.382;8.480;2023-07-29T01:31:00;22.20;98.30
19007;DHT22;9636;47.382;8.480;2023-07-29T01:33:32;22.20;98.30
19007;DHT22;9636;47.382;8.480;2023-07-29T01:36:03;22.20;98.30
19007;DHT22;9636;47.382;8.480;2023-07-29T01:38:36;22.20;98.30
19007;DHT22;9636;47.382;8.480;2023-07-29T01:41:07;22.20;98.40
19007;DHT22;9636;47.382;8.480;2023-07-29T01:43:34;22.10;98.30
19007;DHT22;9636;47.382;8.480;2023-07-29T01:46:07;22.20;98.40
19007;DHT22;9636;47.382;8.480;2023-07-29T01:48:34;22.20;98.40
19007;DHT22;9636;47.382;8.480;2023-07-29T01:51:00;22.20;98.40
19007;DHT22;9636;47.382;8.480;2023-07-29T01:53:27;22.10;98.30
19007;DHT22;9636;47.382;8.480;2023-07-29T01:55:55;22.10;98.40
19007;DHT22;9636;47.382;8.480;2023-07-29T01:58:23;22.10;98.30
19007;DHT22;9636;47.382;8.480;2023-07-29T02:00:49;22.10;98.40
19007;DHT22;9636;47.382;8.480;2023-07-29T02:03:16;22.10;98.40
19007;DHT22;9636;47.382;8.480;2023-07-29T02:05:43;22.10;98.40
19007;DHT22;9636;47.382;8.480;2023-07-29T02:08:10;22.10;98.40
19007;DHT22;9636;47.382;8.480;2023-07-29T02:10:37;22.10;98.40
19007;DHT22;9636;47.382;8.480;2023-07-29T02:13:05;22.10;98.40
19007;DHT22;9636;47.382;8.480;2023-07-29T02:15:32;22.00;98.40
19007;DHT22;9636;47.382;8.480;2023-07-29T02:17:59;22.00;98.40
19007;DHT22;9636;47.382;8.480;2023-07-29T02:20:27;22.00;98.40
19007;DHT22;9636;47.382;8.480;2023-07-29T02:22:54;22.00;98.40
19007;DHT22;9636;47.382;8.480;2023-07-29T02:25:21;22.00;98.40
19007;DHT22;9636;47.382;8.480;2023-07-29T02:27:47;22.00;98.40
19007;DHT22;9636;47.382;8.480;2023-07-29T02:30:16;22.00;98.40
19007;DHT22;9636;47.382;8.480;2023-07-29T02:32:42;22.00;98.40
19007;DHT22;9636;47.382;8.480;2023-07-29T02:35:09;22.00;98.40
19007;DHT22;9636;47.382;8.480;2023-07-29T02:37:36;22.00;98.40
19007;DHT22;9636;47.382;8.480;2023-07-29T02:40:04;22.00;98.40
19007;DHT22;9636;47.382;8.480;2023-07-29T02:42:31;22.00;98.40
19007;DHT22;9636;47.382;8.480;2023-07-29T02:44:58;22.00;98.40
19007;DHT22;9636;47.382;8.480;2023-07-29T02:47:26;21.90;98.40
19007;DHT22;9636;47.382;8.480;2023-07-29T02:49:53;21.90;98.40
19007;DHT22;9636;47.382;8.480;2023-07-29T02:52:20;21.90;98.40
19007;DHT22;9636;47.382;8.480;2023-07-29T02:54:47;21.90;98.40
19007;DHT22;9636;47.382;8.480;2023-07-29T02:57:14;21.90;98.40
19007;DHT22;9636;47.382;8.480;2023-07-29T02:59:40;21.90;98.40
19007;DHT22;9636;47.382;8.480;2023-07-29T03:02:07;21.90;98.40
19007;DHT22;9636;47.382;8.480;2023-07-29T03:04:35;21.80;98.40
19007;DHT22;9636;47.382;8.480;2023-07-29T03:07:03;21.90;98.80
19007;DHT22;9636;47.382;8.480;2023-07-29T03:09:30;21.90;98.40
19007;DHT22;9636;47.382;8.480;2023-07-29T03:11:58;21.80;98.40
19007;DHT22;9636;47.382;8.480;2023-07-29T03:14:26;21.80;98.40
19007;DHT22;9636;47.382;8.480;2023-07-29T03:16:53;21.90;98.40
19007;DHT22;9636;47.382;8.480;2023-07-29T03:19:20;21.80;98.40
19007;DHT22;9636;47.382;8.480;2023-07-29T03:21:48;21.80;98.40
19007;DHT22;9636;47.382;8.480;2023-07-29T03:24:15;21.90;98.40
19007;DHT22;9636;47.382;8.480;2023-07-29T03:26:42;21.80;98.40
19007;DHT22;9636;47.382;8.480;2023-07-29T03:29:09;21.80;98.40
19007;DHT22;9636;47.382;8.480;2023-07-29T03:31:36;21.80;98.40
19007;DHT22;9636;47.382;8.480;2023-07-29T03:34:02;21.80;98.40
19007;DHT22;9636;47.382;8.480;2023-07-29T03:36:29;21.80;98.40
19007;DHT22;9636;47.382;8.480;2023-07-29T03:38:57;21.80;98.40
19007;DHT22;9636;47.382;8.480;2023-07-29T03:41:26;21.80;98.40
19007;DHT22;9636;47.382;8.480;2023-07-29T03:43:52;21.80;98.40
19007;DHT22;9636;47.382;8.480;2023-07-29T03:46:19;21.80;98.40
19007;DHT22;9636;47.382;8.480;2023-07-29T03:48:47;21.80;98.40
19007;DHT22;9636;47.382;8.480;2023-07-29T03:51:14;21.80;98.40
19007;DHT22;9636;47.382;8.480;2023-07-29T03:53:41;21.80;98.30
19007;DHT22;9636;47.382;8.480;2023-07-29T03:56:09;21.70;98.30
19007;DHT22;9636;47.382;8.480;2023-07-29T03:58:36;21.70;98.30
19007;DHT22;9636;47.382;8.480;2023-07-29T04:01:03;21.70;98.30
19007;DHT22;9636;47.382;8.480;2023-07-29T04:03:30;21.80;98.30
19007;DHT22;9636;47.382;8.480;2023-07-29T04:05:57;21.80;98.30
19007;DHT22;9636;47.382;8.480;2023-07-29T04:08:24;21.70;98.30
19007;DHT22;9636;47.382;8.480;2023-07-29T04:10:50;21.70;98.30
19007;DHT22;9636;47.382;8.480;2023-07-29T04:13:19;21.70;98.30
19007;DHT22;9636;47.382;8.480;2023-07-29T04:15:45;21.70;98.30
19007;DHT22;9636;47.382;8.480;2023-07-29T04:18:12;21.70;98.30
19007;DHT22;9636;47.382;8.480;2023-07-29T04:20:39;21.70;98.30
19007;DHT22;9636;47.382;8.480;2023-07-29T04:23:06;21.70;98.30
19007;DHT22;9636;47.382;8.480;2023-07-29T04:25:33;21.70;98.30
19007;DHT22;9636;47.382;8.480;2023-07-29T04:27:59;21.70;98.30
19007;DHT22;9636;47.382;8.480;2023-07-29T04:30:30;21.70;98.20
19007;DHT22;9636;47.382;8.480;2023-07-29T04:32:57;21.70;98.20
19007;DHT22;9636;47.382;8.480;2023-07-29T04:35:23;21.70;98.20
19007;DHT22;9636;47.382;8.480;2023-07-29T04:37:50;21.70;98.20
19007;DHT22;9636;47.382;8.480;2023-07-29T04:40:17;21.70;98.20
19007;DHT22;9636;47.382;8.480;2023-07-29T04:42:44;21.70;98.20
19007;DHT22;9636;47.382;8.480;2023-07-29T04:45:11;21.70;98.20
19007;DHT22;9636;47.382;8.480;2023-07-29T04:47:39;21.70;98.20
19007;DHT22;9636;47.382;8.480;2023-07-29T04:50:07;21.70;98.10
19007;DHT22;9636;47.382;8.480;2023-07-29T04:52:34;21.70;98.10
19007;DHT22;9636;47.382;8.480;2023-07-29T04:55:01;21.80;98.50
19007;DHT22;9636;47.382;8.480;2023-07-29T04:57:28;21.80;98.10
19007;DHT22;9636;47.382;8.480;2023-07-29T04:59:54;21.80;98.10
19007;DHT22;9636;47.382;8.480;2023-07-29T05:02:21;21.90;98.10
19007;DHT22;9636;47.382;8.480;2023-07-29T05:04:49;21.90;98.10
19007;DHT22;9636;47.382;8.480;2023-07-29T05:07:16;21.90;98.00
19007;DHT22;9636;47.382;8.480;2023-07-29T05:09:43;22.00;98.00
19007;DHT22;9636;47.382;8.480;2023-07-29T05:12:10;22.00;97.90
19007;DHT22;9636;47.382;8.480;2023-07-29T05:14:36;22.00;97.90
19007;DHT22;9636;47.382;8.480;2023-07-29T05:17:04;22.10;97.90
19007;DHT22;9636;47.382;8.480;2023-07-29T05:19:31;22.10;97.90
19007;DHT22;9636;47.382;8.480;2023-07-29T05:21:59;22.10;97.90
19007;DHT22;9636;47.382;8.480;2023-07-29T05:24:25;22.10;97.90
19007;DHT22;9636;47.382;8.480;2023-07-29T05:26:52;22.10;97.80
19007;DHT22;9636;47.382;8.480;2023-07-29T05:29:19;22.10;97.80
19007;DHT22;9636;47.382;8.480;2023-07-29T05:31:46;22.10;97.80
19007;DHT22;9636;47.382;8.480;2023-07-29T05:34:13;22.20;97.80
19007;DHT22;9636;47.382;8.480;2023-07-29T05:36:40;22.20;97.80
19007;DHT22;9636;47.382;8.480;2023-07-29T05:39:08;22.20;97.70
19007;DHT22;9636;47.382;8.480;2023-07-29T05:41:34;22.20;97.70
19007;DHT22;9636;47.382;8.480;2023-07-29T05:44:01;22.20;97.70
19007;DHT22;9636;47.382;8.480;2023-07-29T05:46:28;22.30;97.80
19007;DHT22;9636;47.382;8.480;2023-07-29T05:48:55;22.30;97.70
19007;DHT22;9636;47.382;8.480;2023-07-29T05:51:22;22.30;97.60
19007;DHT22;9636;47.382;8.480;2023-07-29T05:53:48;22.40;97.60
19007;DHT22;9636;47.382;8.480;2023-07-29T05:56:16;22.40;97.60
19007;DHT22;9636;47.382;8.480;2023-07-29T05:58:43;22.40;97.50
19007;DHT22;9636;47.382;8.480;2023-07-29T06:01:10;22.40;97.50
19007;DHT22;9636;47.382;8.480;2023-07-29T06:03:37;22.50;97.50
19007;DHT22;9636;47.382;8.480;2023-07-29T06:06:04;22.50;97.40
19007;DHT22;9636;47.382;8.480;2023-07-29T06:08:31;22.60;97.40
19007;DHT22;9636;47.382;8.480;2023-07-29T06:10:59;22.70;97.30
19007;DHT22;9636;47.382;8.480;2023-07-29T06:13:28;22.80;97.20
19007;DHT22;9636;47.382;8.480;2023-07-29T06:15:54;22.90;97.10
19007;DHT22;9636;47.382;8.480;2023-07-29T06:18:21;23.00;97.00
19007;DHT22;9636;47.382;8.480;2023-07-29T06:20:48;23.10;97.00
19007;DHT22;9636;47.382;8.480;2023-07-29T06:23:15;23.20;97.10
19007;DHT22;9636;47.382;8.480;2023-07-29T06:25:42;23.20;97.00
19007;DHT22;9636;47.382;8.480;2023-07-29T06:28:09;23.20;96.90
19007;DHT22;9636;47.382;8.480;2023-07-29T06:30:37;23.30;96.90
19007;DHT22;9636;47.382;8.480;2023-07-29T06:33:04;23.30;96.90
19007;DHT22;9636;47.382;8.480;2023-07-29T06:35:31;23.40;96.80
19007;DHT22;9636;47.382;8.480;2023-07-29T06:37:58;23.50;96.70
19007;DHT22;9636;47.382;8.480;2023-07-29T06:40:25;23.60;96.60
19007;DHT22;9636;47.382;8.480;2023-07-29T06:42:51;23.60;96.50
19007;DHT22;9636;47.382;8.480;2023-07-29T06:45:18;23.70;96.50
19007;DHT22;9636;47.382;8.480;2023-07-29T06:47:46;23.80;96.40
19007;DHT22;9636;47.382;8.480;2023-07-29T06:50:13;23.80;96.30
19007;DHT22;9636;47.382;8.480;2023-07-29T06:52:40;23.90;96.20
19007;DHT22;9636;47.382;8.480;2023-07-29T06:55:07;24.00;96.10
19007;DHT22;9636;47.382;8.480;2023-07-29T06:57:34;24.10;96.10
19007;DHT22;9636;47.382;8.480;2023-07-29T07:00:01;24.20;96.00
19007;DHT22;9636;47.382;8.480;2023-07-29T07:02:28;24.30;95.90
19007;DHT22;9636;47.382;8.480;2023-07-29T07:04:57;24.30;95.90
19007;DHT22;9636;47.382;8.480;2023-07-29T07:07:23;24.40;95.90
19007;DHT22;9636;47.382;8.480;2023-07-29T07:09:50;24.40;95.80
19007;DHT22;9636;47.382;8.480;2023-07-29T07:12:17;24.50;95.70
19007;DHT22;9636;47.382;8.480;2023-07-29T07:14:44;24.60;95.60
19007;DHT22;9636;47.382;8.480;2023-07-29T07:17:11;24.70;95.60
19007;DHT22;9636;47.382;8.480;2023-07-29T07:19:37;24.80;95.50
19007;DHT22;9636;47.382;8.480;2023-07-29T07:22:05;24.90;95.40
19007;DHT22;9636;47.382;8.480;2023-07-29T07:24:32;25.00;95.40
19007;DHT22;9636;47.382;8.480;2023-07-29T07:26:59;25.10;95.30
19007;DHT22;9636;47.382;8.480;2023-07-29T07:29:26;25.20;95.20
19007;DHT22;9636;47.382;8.480;2023-07-29T07:31:53;25.30;95.20
19007;DHT22;9636;47.382;8.480;2023-07-29T07:34:21;25.40;95.10
19007;DHT22;9636;47.382;8.480;2023-07-29T07:36:48;25.50;95.00
19007;DHT22;9636;47.382;8.480;2023-07-29T07:39:16;25.60;95.00
19007;DHT22;9636;47.382;8.480;2023-07-29T07:41:43;25.70;94.90
19007;DHT22;9636;47.382;8.480;2023-07-29T07:44:10;25.90;94.80
19007;DHT22;9636;47.382;8.480;2023-07-29T07:46:40;25.90;94.70
19007;DHT22;9636;47.382;8.480;2023-07-29T07:49:07;25.90;94.60
19007;DHT22;9636;47.382;8.480;2023-07-29T07:51:34;26.00;94.60
19007;DHT22;9636;47.382;8.480;2023-07-29T07:54:01;26.00;94.60
19007;DHT22;9636;47.382;8.480;2023-07-29T07:56:29;26.10;94.60
19007;DHT22;9636;47.382;8.480;2023-07-29T07:58:56;26.10;94.50
19007;DHT22;9636;47.382;8.480;2023-07-29T08:01:22;26.20;94.60
19007;DHT22;9636;47.382;8.480;2023-07-29T08:03:49;26.10;94.60
19007;DHT22;9636;47.382;8.480;2023-07-29T08:06:16;26.20;94.60
19007;DHT22;9636;47.382;8.480;2023-07-29T08:08:43;26.30;94.50
19007;DHT22;9636;47.382;8.480;2023-07-29T08:11:10;26.40;94.30
19007;DHT22;9636;47.382;8.480;2023-07-29T08:13:38;26.50;94.20
19007;DHT22;9636;47.382;8.480;2023-07-29T08:16:05;26.50;94.20
19007;DHT22;9636;47.382;8.480;2023-07-29T08:18:31;26.50;94.10
19007;DHT22;9636;47.382;8.480;2023-07-29T08:20:58;26.60;94.10
19007;DHT22;9636;47.382;8.480;2023-07-29T08:23:28;26.60;94.10
19007;DHT22;9636;47.382;8.480;2023-07-29T08:25:57;26.60;94.10
19007;DHT22;9636;47.382;8.480;2023-07-29T08:28:27;26.70;93.90
19007;DHT22;9636;47.382;8.480;2023-07-29T08:30:56;26.80;94.20
19007;DHT22;9636;47.382;8.480;2023-07-29T08:33:23;26.80;93.90
19007;DHT22;9636;47.382;8.480;2023-07-29T08:35:50;26.90;93.80
19007;DHT22;9636;47.382;8.480;2023-07-29T08:38:16;26.90;93.80
19007;DHT22;9636;47.382;8.480;2023-07-29T08:40:49;27.00;93.60
19007;DHT22;9636;47.382;8.480;2023-07-29T08:43:19;27.10;93.60
19007;DHT22;9636;47.382;8.480;2023-07-29T08:45:46;27.20;93.40
19007;DHT22;9636;47.382;8.480;2023-07-29T08:48:21;27.40;93.10
19007;DHT22;9636;47.382;8.480;2023-07-29T08:50:51;27.80;92.50
19007;DHT22;9636;47.382;8.480;2023-07-29T08:53:19;28.20;92.10
19007;DHT22;9636;47.382;8.480;2023-07-29T08:55:47;28.30;91.90
19007;DHT22;9636;47.382;8.480;2023-07-29T08:58:14;28.50;91.60
19007;DHT22;9636;47.382;8.480;2023-07-29T09:00:42;28.80;91.30
19007;DHT22;9636;47.382;8.480;2023-07-29T09:03:09;29.10;91.00
19007;DHT22;9636;47.382;8.480;2023-07-29T09:05:37;29.30;90.70
19007;DHT22;9636;47.382;8.480;2023-07-29T09:08:04;29.40;90.50
19007;DHT22;9636;47.382;8.480;2023-07-29T09:10:35;29.50;90.60
19007;DHT22;9636;47.382;8.480;2023-07-29T09:13:02;29.40;90.60
19007;DHT22;9636;47.382;8.480;2023-07-29T09:15:30;29.40;90.90
19007;DHT22;9636;47.382;8.480;2023-07-29T09:17:58;29.20;91.20
19007;DHT22;9636;47.382;8.480;2023-07-29T09:20:26;29.10;91.30
19007;DHT22;9636;47.382;8.480;2023-07-29T09:22:57;29.00;91.50
19007;DHT22;9636;47.382;8.480;2023-07-29T09:25:25;29.00;91.60
19007;DHT22;9636;47.382;8.480;2023-07-29T09:27:52;29.00;91.70
19007;DHT22;9636;47.382;8.480;2023-07-29T09:30:19;29.00;91.60
19007;DHT22;9636;47.382;8.480;2023-07-29T09:32:45;29.00;91.60
19007;DHT22;9636;47.382;8.480;2023-07-29T09:35:15;29.00;91.70
19007;DHT22;9636;47.382;8.480;2023-07-29T09:37:43;29.10;91.70
19007;DHT22;9636;47.382;8.480;2023-07-29T09:40:14;29.00;91.60
19007;DHT22;9636;47.382;8.480;2023-07-29T09:42:48;29.00;91.70
19007;DHT22;9636;47.382;8.480;2023-07-29T09:45:20;29.00;91.80
19007;DHT22;9636;47.382;8.480;2023-07-29T09:47:47;29.00;91.80
19007;DHT22;9636;47.382;8.480;2023-07-29T09:50:14;29.00;91.80
19007;DHT22;9636;47.382;8.480;2023-07-29T09:52:41;29.10;91.80
19007;DHT22;9636;47.382;8.480;2023-07-29T09:55:10;29.10;91.90
19007;DHT22;9636;47.382;8.480;2023-07-29T09:57:39;29.10;91.90
19007;DHT22;9636;47.382;8.480;2023-07-29T10:00:07;29.10;91.80
19007;DHT22;9636;47.382;8.480;2023-07-29T10:02:37;29.10;91.90
19007;DHT22;9636;47.382;8.480;2023-07-29T10:05:06;29.10;91.90
19007;DHT22;9636;47.382;8.480;2023-07-29T10:07:33;29.20;92.00
19007;DHT22;9636;47.382;8.480;2023-07-29T10:10:02;29.20;91.90
19007;DHT22;9636;47.382;8.480;2023-07-29T10:12:30;29.20;91.90
19007;DHT22;9636;47.382;8.480;2023-07-29T10:15:02;29.30;91.90
19007;DHT22;9636;47.382;8.480;2023-07-29T10:17:30;29.20;91.90
19007;DHT22;9636;47.382;8.480;2023-07-29T10:19:57;29.20;91.90
19007;DHT22;9636;47.382;8.480;2023-07-29T10:22:27;29.30;91.90
19007;DHT22;9636;47.382;8.480;2023-07-29T10:24:59;29.30;91.90
19007;DHT22;9636;47.382;8.480;2023-07-29T10:27:31;29.30;91.90
19007;DHT22;9636;47.382;8.480;2023-07-29T10:30:03;29.30;92.00
19007;DHT22;9636;47.382;8.480;2023-07-29T10:32:31;29.30;91.90
19007;DHT22;9636;47.382;8.480;2023-07-29T10:34:58;29.40;92.00
19007;DHT22;9636;47.382;8.480;2023-07-29T10:37:25;29.40;91.90
19007;DHT22;9636;47.382;8.480;2023-07-29T10:39:53;29.40;91.90
19007;DHT22;9636;47.382;8.480;2023-07-29T10:42:21;29.40;92.00
19007;DHT22;9636;47.382;8.480;2023-07-29T10:44:49;29.40;92.10
19007;DHT22;9636;47.382;8.480;2023-07-29T10:47:18;29.40;92.10
19007;DHT22;9636;47.382;8.480;2023-07-29T10:49:46;29.40;92.10
19007;DHT22;9636;47.382;8.480;2023-07-29T10:52:13;29.40;92.10
19007;DHT22;9636;47.382;8.480;2023-07-29T10:54:44;29.30;92.10
19007;DHT22;9636;47.382;8.480;2023-07-29T10:57:15;29.30;92.10
19007;DHT22;9636;47.382;8.480;2023-07-29T10:59:54;29.40;92.10
19007;DHT22;9636;47.382;8.480;2023-07-29T11:02:28;29.40;92.20
19007;DHT22;9636;47.382;8.480;2023-07-29T11:04:56;29.30;92.20
19007;DHT22;9636;47.382;8.480;2023-07-29T11:07:26;29.30;92.30
19007;DHT22;9636;47.382;8.480;2023-07-29T11:09:58;29.40;92.30
19007;DHT22;9636;47.382;8.480;2023-07-29T11:12:49;29.40;92.20
19007;DHT22;9636;47.382;8.480;2023-07-29T11:15:24;29.40;92.10
19007;DHT22;9636;47.382;8.480;2023-07-29T11:17:54;29.40;92.10
19007;DHT22;9636;47.382;8.480;2023-07-29T11:20:23;29.40;92.20
19007;DHT22;9636;47.382;8.480;2023-07-29T11:22:50;29.40;92.30
19007;DHT22;9636;47.382;8.480;2023-07-29T11:25:18;29.40;92.30
19007;DHT22;9636;47.382;8.480;2023-07-29T11:27:45;29.40;92.30
19007;DHT22;9636;47.382;8.480;2023-07-29T11:30:14;29.30;92.30
19007;DHT22;9636;47.382;8.480;2023-07-29T11:32:42;29.30;92.40
19007;DHT22;9636;47.382;8.480;2023-07-29T11:35:12;29.30;92.50
19007;DHT22;9636;47.382;8.480;2023-07-29T11:37:41;29.30;92.60
19007;DHT22;9636;47.382;8.480;2023-07-29T11:40:08;29.30;92.50
19007;DHT22;9636;47.382;8.480;2023-07-29T11:42:37;29.40;92.40
19007;DHT22;9636;47.382;8.480;2023-07-29T11:45:05;29.80;92.00
19007;DHT22;9636;47.382;8.480;2023-07-29T11:47:33;30.60;91.00
19007;DHT22;9636;47.382;8.480;2023-07-29T11:50:03;30.40;91.20
19007;DHT22;9636;47.382;8.480;2023-07-29T11:52:33;30.20;91.60
19007;DHT22;9636;47.382;8.480;2023-07-29T11:55:00;30.00;91.80
19007;DHT22;9636;47.382;8.480;2023-07-29T11:57:27;29.90;92.00
19007;DHT22;9636;47.382;8.480;2023-07-29T11:59:54;29.80;92.10
19007;DHT22;9636;47.382;8.480;2023-07-29T12:02:22;29.70;92.30
19007;DHT22;9636;47.382;8.480;2023-07-29T12:04:50;29.60;92.40
19007;DHT22;9636;47.382;8.480;2023-07-29T12:07:17;29.60;92.50
19007;DHT22;9636;47.382;8.480;2023-07-29T12:09:47;29.50;92.50
19007;DHT22;9636;47.382;8.480;2023-07-29T12:12:15;29.50;92.60
19007;DHT22;9636;47.382;8.480;2023-07-29T12:14:44;29.40;92.70
19007;DHT22;9636;47.382;8.480;2023-07-29T12:17:12;29.40;92.70
19007;DHT22;9636;47.382;8.480;2023-07-29T12:19:39;29.40;92.70
19007;DHT22;9636;47.382;8.480;2023-07-29T12:22:07;29.40;93.00
19007;DHT22;9636;47.382;8.480;2023-07-29T12:24:36;29.30;93.10
19007;DHT22;9636;47.382;8.480;2023-07-29T12:27:05;29.30;93.30
19007;DHT22;9636;47.382;8.480;2023-07-29T12:29:32;29.30;93.30
19007;DHT22;9636;47.382;8.480;2023-07-29T12:32:06;29.20;93.30
19007;DHT22;9636;47.382;8.480;2023-07-29T12:34:33;29.20;93.40
19007;DHT22;9636;47.382;8.480;2023-07-29T12:37:05;29.20;93.30
19007;DHT22;9636;47.382;8.480;2023-07-29T12:39:33;29.20;93.30
19007;DHT22;9636;47.382;8.480;2023-07-29T12:42:01;29.10;93.70
19007;DHT22;9636;47.382;8.480;2023-07-29T12:44:32;29.10;93.50
19007;DHT22;9636;47.382;8.480;2023-07-29T12:47:00;29.00;93.50
19007;DHT22;9636;47.382;8.480;2023-07-29T12:49:28;28.90;93.50
19007;DHT22;9636;47.382;8.480;2023-07-29T12:51:55;28.90;93.50
19007;DHT22;9636;47.382;8.480;2023-07-29T12:54:22;28.80;93.60
19007;DHT22;9636;47.382;8.480;2023-07-29T12:56:49;28.80;93.60
19007;DHT22;9636;47.382;8.480;2023-07-29T12:59:16;28.80;93.70
19007;DHT22;9636;47.382;8.480;2023-07-29T13:01:44;28.80;93.70
19007;DHT22;9636;47.382;8.480;2023-07-29T13:04:11;28.70;93.70
19007;DHT22;9636;47.382;8.480;2023-07-29T13:06:38;28.70;93.80
19007;DHT22;9636;47.382;8.480;2023-07-29T13:09:05;28.70;93.90
19007;DHT22;9636;47.382;8.480;2023-07-29T13:11:32;28.70;93.90
19007;DHT22;9636;47.382;8.480;2023-07-29T13:13:59;28.60;94.00
19007;DHT22;9636;47.382;8.480;2023-07-29T13:16:26;28.60;94.00
19007;DHT22;9636;47.382;8.480;2023-07-29T13:18:54;28.60;94.00
19007;DHT22;9636;47.382;8.480;2023-07-29T13:21:21;28.50;94.10
19007;DHT22;9636;47.382;8.480;2023-07-29T13:23:48;28.50;94.10
19007;DHT22;9636;47.382;8.480;2023-07-29T13:26:14;28.50;94.20
19007;DHT22;9636;47.382;8.480;2023-07-29T13:28:41;28.40;94.30
19007;DHT22;9636;47.382;8.480;2023-07-29T13:31:08;28.40;94.30
19007;DHT22;9636;47.382;8.480;2023-07-29T13:33:35;28.40;94.40
19007;DHT22;9636;47.382;8.480;2023-07-29T13:36:03;28.40;94.40
19007;DHT22;9636;47.382;8.480;2023-07-29T13:38:30;28.40;94.40
19007;DHT22;9636;47.382;8.480;2023-07-29T13:40:57;28.30;94.40
19007;DHT22;9636;47.382;8.480;2023-07-29T13:43:24;28.30;94.50
19007;DHT22;9636;47.382;8.480;2023-07-29T13:45:51;28.30;94.50
19007;DHT22;9636;47.382;8.480;2023-07-29T13:48:18;28.30;94.50
19007;DHT22;9636;47.382;8.480;2023-07-29T13:50:45;28.30;94.50
19007;DHT22;9636;47.382;8.480;2023-07-29T13:53:13;28.30;94.50
19007;DHT22;9636;47.382;8.480;2023-07-29T13:55:40;28.30;94.50
19007;DHT22;9636;47.382;8.480;2023-07-29T13:58:06;28.20;94.60
19007;DHT22;9636;47.382;8.480;2023-07-29T14:00:33;28.20;94.60
19007;DHT22;9636;47.382;8.480;2023-07-29T14:03:00;28.20;94.70
19007;DHT22;9636;47.382;8.480;2023-07-29T14:05:27;28.10;94.70
19007;DHT22;9636;47.382;8.480;2023-07-29T14:07:53;28.10;94.80
19007;DHT22;9636;47.382;8.480;2023-07-29T14:10:21;28.10;94.80
19007;DHT22;9636;47.382;8.480;2023-07-29T14:12:48;28.10;94.80
19007;DHT22;9636;47.382;8.480;2023-07-29T14:15:15;28.10;94.90
19007;DHT22;9636;47.382;8.480;2023-07-29T14:17:42;28.00;94.90
19007;DHT22;9636;47.382;8.480;2023-07-29T14:20:10;28.00;94.90
19007;DHT22;9636;47.382;8.480;2023-07-29T14:22:37;28.00;95.00
19007;DHT22;9636;47.382;8.480;2023-07-29T14:25:04;28.00;95.30
19007;DHT22;9636;47.382;8.480;2023-07-29T14:27:33;27.90;95.00
19007;DHT22;9636;47.382;8.480;2023-07-29T14:29:59;27.90;95.00
19007;DHT22;9636;47.382;8.480;2023-07-29T14:32:27;27.90;95.00
19007;DHT22;9636;47.382;8.480;2023-07-29T14:34:53;27.90;95.10
19007;DHT22;9636;47.382;8.480;2023-07-29T14:37:20;27.90;95.10
19007;DHT22;9636;47.382;8.480;2023-07-29T14:39:47;27.90;95.10
19007;DHT22;9636;47.382;8.480;2023-07-29T14:42:14;27.90;95.10
19007;DHT22;9636;47.382;8.480;2023-07-29T14:44:42;27.80;95.10
19007;DHT22;9636;47.382;8.480;2023-07-29T14:47:09;27.80;95.10
19007;DHT22;9636;47.382;8.480;2023-07-29T14:49:36;27.80;95.10
19007;DHT22;9636;47.382;8.480;2023-07-29T14:52:03;27.80;95.20
19007;DHT22;9636;47.382;8.480;2023-07-29T14:54:30;27.80;95.20
19007;DHT22;9636;47.382;8.480;2023-07-29T14:56:57;27.80;95.20
19007;DHT22;9636;47.382;8.480;2023-07-29T14:59:24;27.80;95.20
19007;DHT22;9636;47.382;8.480;2023-07-29T15:01:52;27.80;95.20
19007;DHT22;9636;47.382;8.480;2023-07-29T15:04:19;27.80;95.30
19007;DHT22;9636;47.382;8.480;2023-07-29T15:06:45;27.80;95.30
19007;DHT22;9636;47.382;8.480;2023-07-29T15:09:12;27.70;95.30
19007;DHT22;9636;47.382;8.480;2023-07-29T15:11:39;27.70;95.40
19007;DHT22;9636;47.382;8.480;2023-07-29T15:14:06;27.70;95.40
19007;DHT22;9636;47.382;8.480;2023-07-29T15:16:33;27.70;95.40
19007;DHT22;9636;47.382;8.480;2023-07-29T15:19:02;27.70;95.50
19007;DHT22;9636;47.382;8.480;2023-07-29T15:21:29;27.60;95.40
19007;DHT22;9636;47.382;8.480;2023-07-29T15:23:58;27.60;95.40
19007;DHT22;9636;47.382;8.480;2023-07-29T15:26:25;27.60;95.40
19007;DHT22;9636;47.382;8.480;2023-07-29T15:28:52;27.60;95.50
19007;DHT22;9636;47.382;8.480;2023-07-29T15:31:19;27.60;95.90
19007;DHT22;9636;47.382;8.480;2023-07-29T15:33:45;27.60;95.50
19007;DHT22;9636;47.382;8.480;2023-07-29T15:36:14;27.50;95.60
19007;DHT22;9636;47.382;8.480;2023-07-29T15:38:40;27.50;95.50
19007;DHT22;9636;47.382;8.480;2023-07-29T15:41:07;27.60;95.60
19007;DHT22;9636;47.382;8.480;2023-07-29T15:43:34;27.50;95.60
19007;DHT22;9636;47.382;8.480;2023-07-29T15:46:01;27.50;95.60
19007;DHT22;9636;47.382;8.480;2023-07-29T15:48:27;27.50;95.60